sensor_id;sensor_type;location;lat;lon;timestamp;P1;durP1;ratioP1;P2;durP2;ratioP2
75156;SDS011;63736;50.076;8.198;2022-10-16T00:01:06;3.00;;;0.70;;
75156;SDS011;63736;50.076;8.198;2022-10-16T00:03:39;3.20;;;0.70;;
75156;SDS011;63736;50.076;8.198;2022-10-16T00:06:05;2.30;;;0.70;;
75156;SDS011;63736;50.076;8.198;2022-10-16T00:08:32;3.05;;;0.70;;
75156;SDS011;63736;50.076;8.198;2022-10-16T00:11:02;2.10;;;0.60;;
75156;SDS011;63736;50.076;8.198;2022-10-16T00:13:29;1.43;;;0.30;;
75156;SDS011;63736;50.076;8.198;2022-10-16T00:15:56;2.45;;;0.60;;
75156;SDS011;63736;50.076;8.198;2022-10-16T00:18:23;3.00;;;0.90;;
75156;SDS011;63736;50.076;8.198;2022-10-16T00:20:48;2.75;;;0.90;;
75156;SDS011;63736;50.076;8.198;2022-10-16T00:23:14;2.23;;;0.70;;
75156;SDS011;63736;50.076;8.198;2022-10-16T00:25:39;2.37;;;0.77;;
75156;SDS011;63736;50.076;8.198;2022-10-16T00:28:05;2.80;;;0.70;;
75156;SDS011;63736;50.076;8.198;2022-10-16T00:30:30;2.50;;;0.77;;
75156;SDS011;63736;50.076;8.198;2022-10-16T00:32:55;2.05;;;0.60;;
75156;SDS011;63736;50.076;8.198;2022-10-16T00:35:21;2.87;;;0.93;;
75156;SDS011;63736;50.076;8.198;2022-10-16T00:37:47;2.45;;;0.70;;
75156;SDS011;63736;50.076;8.198;2022-10-16T00:40:12;2.63;;;0.73;;
75156;SDS011;63736;50.076;8.198;2022-10-16T00:42:38;3.17;;;0.87;;
75156;SDS011;63736;50.076;8.198;2022-10-16T00:45:03;3.35;;;1.20;;
75156;SDS011;63736;50.076;8.198;2022-10-16T00:47:34;2.10;;;0.70;;
75156;SDS011;63736;50.076;8.198;2022-10-16T00:50:24;2.45;;;0.65;;
75156;SDS011;63736;50.076;8.198;2022-10-16T00:52:54;2.90;;;0.77;;
75156;SDS011;63736;50.076;8.198;2022-10-16T00:55:20;3.47;;;1.13;;
75156;SDS011;63736;50.076;8.198;2022-10-16T00:57:46;2.43;;;0.70;;
75156;SDS011;63736;50.076;8.198;2022-10-16T01:00:15;2.00;;;0.57;;
75156;SDS011;63736;50.076;8.198;2022-10-16T01:02:42;3.03;;;0.90;;
75156;SDS011;63736;50.076;8.198;2022-10-16T01:05:07;3.23;;;1.13;;
75156;SDS011;63736;50.076;8.198;2022-10-16T01:10:29;4.97;;;1.67;;
75156;SDS011;63736;50.076;8.198;2022-10-16T01:13:25;5.00;;;1.20;;
75156;SDS011;63736;50.076;8.198;2022-10-16T01:21:05;3.90;;;1.77;;
75156;SDS011;63736;50.076;8.198;2022-10-16T01:31:34;3.20;;;1.08;;
75156;SDS011;63736;50.076;8.198;2022-10-16T01:34:28;3.00;;;0.90;;
75156;SDS011;63736;50.076;8.198;2022-10-16T01:37:09;4.88;;;1.20;;
75156;SDS011;63736;50.076;8.198;2022-10-16T01:39:39;3.08;;;0.98;;
75156;SDS011;63736;50.076;8.198;2022-10-16T01:42:09;3.70;;;1.10;;
75156;SDS011;63736;50.076;8.198;2022-10-16T01:44:38;2.50;;;0.70;;
75156;SDS011;63736;50.076;8.198;2022-10-16T01:47:06;3.30;;;1.25;;
75156;SDS011;63736;50.076;8.198;2022-10-16T01:49:34;3.50;;;0.80;;
75156;SDS011;63736;50.076;8.198;2022-10-16T01:52:04;4.15;;;1.20;;
75156;SDS011;63736;50.076;8.198;2022-10-16T01:54:34;3.03;;;0.70;;
75156;SDS011;63736;50.076;8.198;2022-10-16T01:57:02;2.92;;;0.93;;
75156;SDS011;63736;50.076;8.198;2022-10-16T01:59:31;3.42;;;1.10;;
75156;SDS011;63736;50.076;8.198;2022-10-16T02:02:01;2.80;;;0.85;;
75156;SDS011;63736;50.076;8.198;2022-10-16T02:04:54;4.75;;;1.08;;
75156;SDS011;63736;50.076;8.198;2022-10-16T02:07:21;4.73;;;1.93;;
75156;SDS011;63736;50.076;8.198;2022-10-16T02:09:47;4.15;;;1.42;;
75156;SDS011;63736;50.076;8.198;2022-10-16T02:12:28;2.67;;;0.90;;
75156;SDS011;63736;50.076;8.198;2022-10-16T02:14:57;3.08;;;0.90;;
75156;SDS011;63736;50.076;8.198;2022-10-16T02:17:23;3.37;;;0.70;;
75156;SDS011;63736;50.076;8.198;2022-10-16T02:19:49;2.22;;;0.50;;
75156;SDS011;63736;50.076;8.198;2022-10-16T02:22:30;2.35;;;0.70;;
75156;SDS011;63736;50.076;8.198;2022-10-16T02:25:00;2.90;;;1.10;;
75156;SDS011;63736;50.076;8.198;2022-10-16T02:30:09;3.00;;;0.80;;
75156;SDS011;63736;50.076;8.198;2022-10-16T02:32:39;2.88;;;0.88;;
75156;SDS011;63736;50.076;8.198;2022-10-16T02:35:07;3.90;;;1.17;;
75156;SDS011;63736;50.076;8.198;2022-10-16T02:37:34;3.05;;;1.00;;
75156;SDS011;63736;50.076;8.198;2022-10-16T02:40:00;2.17;;;0.60;;
75156;SDS011;63736;50.076;8.198;2022-10-16T02:42:27;4.65;;;1.27;;
75156;SDS011;63736;50.076;8.198;2022-10-16T02:45:03;2.88;;;0.80;;
75156;SDS011;63736;50.076;8.198;2022-10-16T02:47:33;3.15;;;0.85;;
75156;SDS011;63736;50.076;8.198;2022-10-16T02:49:58;4.00;;;1.37;;
75156;SDS011;63736;50.076;8.198;2022-10-16T02:52:24;4.37;;;1.43;;
75156;SDS011;63736;50.076;8.198;2022-10-16T02:54:49;5.57;;;2.05;;
75156;SDS011;63736;50.076;8.198;2022-10-16T02:57:14;4.07;;;1.60;;
75156;SDS011;63736;50.076;8.198;2022-10-16T02:59:40;5.10;;;2.43;;
75156;SDS011;63736;50.076;8.198;2022-10-16T03:02:05;7.80;;;1.37;;
75156;SDS011;63736;50.076;8.198;2022-10-16T03:04:31;4.20;;;1.77;;
75156;SDS011;63736;50.076;8.198;2022-10-16T03:06:56;3.63;;;1.20;;
75156;SDS011;63736;50.076;8.198;2022-10-16T03:09:21;2.97;;;1.00;;
75156;SDS011;63736;50.076;8.198;2022-10-16T03:11:46;2.70;;;0.70;;
75156;SDS011;63736;50.076;8.198;2022-10-16T03:14:12;4.50;;;1.47;;
75156;SDS011;63736;50.076;8.198;2022-10-16T03:16:37;3.70;;;1.40;;
75156;SDS011;63736;50.076;8.198;2022-10-16T03:19:02;5.47;;;1.40;;
75156;SDS011;63736;50.076;8.198;2022-10-16T03:21:28;4.30;;;1.60;;
75156;SDS011;63736;50.076;8.198;2022-10-16T03:23:53;4.13;;;1.80;;
75156;SDS011;63736;50.076;8.198;2022-10-16T03:26:18;5.23;;;1.90;;
75156;SDS011;63736;50.076;8.198;2022-10-16T03:28:43;4.60;;;1.93;;
75156;SDS011;63736;50.076;8.198;2022-10-16T03:31:09;5.23;;;2.00;;
75156;SDS011;63736;50.076;8.198;2022-10-16T03:33:34;5.07;;;2.22;;
75156;SDS011;63736;50.076;8.198;2022-10-16T03:35:59;4.10;;;1.67;;
75156;SDS011;63736;50.076;8.198;2022-10-16T03:38:25;4.47;;;1.30;;
75156;SDS011;63736;50.076;8.198;2022-10-16T03:40:50;3.70;;;1.03;;
75156;SDS011;63736;50.076;8.198;2022-10-16T03:43:15;3.93;;;1.50;;
75156;SDS011;63736;50.076;8.198;2022-10-16T03:45:41;5.33;;;2.57;;
75156;SDS011;63736;50.076;8.198;2022-10-16T03:48:06;3.58;;;1.33;;
75156;SDS011;63736;50.076;8.198;2022-10-16T03:50:31;3.20;;;1.13;;
75156;SDS011;63736;50.076;8.198;2022-10-16T03:52:57;4.67;;;1.43;;
75156;SDS011;63736;50.076;8.198;2022-10-16T03:55:22;4.10;;;1.47;;
75156;SDS011;63736;50.076;8.198;2022-10-16T03:57:47;4.90;;;1.73;;
75156;SDS011;63736;50.076;8.198;2022-10-16T04:00:12;4.33;;;1.27;;
75156;SDS011;63736;50.076;8.198;2022-10-16T04:02:38;4.53;;;2.13;;
75156;SDS011;63736;50.076;8.198;2022-10-16T04:05:04;3.78;;;1.60;;
75156;SDS011;63736;50.076;8.198;2022-10-16T04:07:29;4.30;;;1.40;;
75156;SDS011;63736;50.076;8.198;2022-10-16T04:09:55;3.20;;;1.10;;
75156;SDS011;63736;50.076;8.198;2022-10-16T04:12:20;3.93;;;1.67;;
75156;SDS011;63736;50.076;8.198;2022-10-16T04:14:45;4.10;;;1.47;;
75156;SDS011;63736;50.076;8.198;2022-10-16T04:17:11;4.53;;;1.57;;
75156;SDS011;63736;50.076;8.198;2022-10-16T04:19:36;3.43;;;1.10;;
75156;SDS011;63736;50.076;8.198;2022-10-16T04:22:01;3.37;;;1.10;;
75156;SDS011;63736;50.076;8.198;2022-10-16T04:24:27;3.40;;;1.10;;
75156;SDS011;63736;50.076;8.198;2022-10-16T04:26:52;6.30;;;1.67;;
75156;SDS011;63736;50.076;8.198;2022-10-16T04:29:17;5.17;;;1.80;;
75156;SDS011;63736;50.076;8.198;2022-10-16T04:31:43;5.37;;;2.37;;
75156;SDS011;63736;50.076;8.198;2022-10-16T04:34:08;4.07;;;1.57;;
75156;SDS011;63736;50.076;8.198;2022-10-16T04:36:33;4.37;;;1.67;;
75156;SDS011;63736;50.076;8.198;2022-10-16T04:38:59;3.10;;;1.07;;
75156;SDS011;63736;50.076;8.198;2022-10-16T04:41:24;3.33;;;1.13;;
75156;SDS011;63736;50.076;8.198;2022-10-16T04:43:49;3.07;;;0.93;;
75156;SDS011;63736;50.076;8.198;2022-10-16T04:46:15;3.73;;;1.20;;
75156;SDS011;63736;50.076;8.198;2022-10-16T04:48:40;3.30;;;1.10;;
75156;SDS011;63736;50.076;8.198;2022-10-16T04:51:05;3.20;;;1.00;;
75156;SDS011;63736;50.076;8.198;2022-10-16T04:53:30;4.17;;;1.40;;
75156;SDS011;63736;50.076;8.198;2022-10-16T04:55:56;3.10;;;1.07;;
75156;SDS011;63736;50.076;8.198;2022-10-16T04:58:22;6.15;;;2.70;;
75156;SDS011;63736;50.076;8.198;2022-10-16T05:00:47;5.63;;;2.30;;
75156;SDS011;63736;50.076;8.198;2022-10-16T05:03:12;3.57;;;1.33;;
75156;SDS011;63736;50.076;8.198;2022-10-16T05:05:41;3.78;;;1.20;;
75156;SDS011;63736;50.076;8.198;2022-10-16T05:08:08;3.78;;;1.45;;
75156;SDS011;63736;50.076;8.198;2022-10-16T05:10:34;3.53;;;1.30;;
75156;SDS011;63736;50.076;8.198;2022-10-16T05:12:59;3.00;;;1.07;;
75156;SDS011;63736;50.076;8.198;2022-10-16T05:15:24;4.93;;;1.53;;
75156;SDS011;63736;50.076;8.198;2022-10-16T05:17:52;4.23;;;1.90;;
75156;SDS011;63736;50.076;8.198;2022-10-16T05:20:18;3.80;;;1.48;;
75156;SDS011;63736;50.076;8.198;2022-10-16T05:22:43;4.47;;;1.53;;
75156;SDS011;63736;50.076;8.198;2022-10-16T05:25:09;5.43;;;2.03;;
75156;SDS011;63736;50.076;8.198;2022-10-16T05:27:34;5.93;;;1.60;;
75156;SDS011;63736;50.076;8.198;2022-10-16T05:29:59;5.20;;;2.23;;
75156;SDS011;63736;50.076;8.198;2022-10-16T05:32:24;4.53;;;1.63;;
75156;SDS011;63736;50.076;8.198;2022-10-16T05:34:50;3.63;;;1.40;;
75156;SDS011;63736;50.076;8.198;2022-10-16T05:37:15;6.00;;;3.03;;
75156;SDS011;63736;50.076;8.198;2022-10-16T05:39:41;4.97;;;1.67;;
75156;SDS011;63736;50.076;8.198;2022-10-16T05:42:06;5.28;;;1.08;;
75156;SDS011;63736;50.076;8.198;2022-10-16T05:44:32;4.60;;;1.60;;
75156;SDS011;63736;50.076;8.198;2022-10-16T05:46:57;3.70;;;1.43;;
75156;SDS011;63736;50.076;8.198;2022-10-16T05:49:23;4.28;;;1.63;;
75156;SDS011;63736;50.076;8.198;2022-10-16T05:51:48;4.47;;;1.90;;
75156;SDS011;63736;50.076;8.198;2022-10-16T05:54:13;4.80;;;1.10;;
75156;SDS011;63736;50.076;8.198;2022-10-16T05:56:39;3.93;;;1.40;;
75156;SDS011;63736;50.076;8.198;2022-10-16T05:59:04;3.40;;;1.20;;
75156;SDS011;63736;50.076;8.198;2022-10-16T06:01:30;3.65;;;1.33;;
75156;SDS011;63736;50.076;8.198;2022-10-16T06:03:56;2.70;;;0.90;;
75156;SDS011;63736;50.076;8.198;2022-10-16T06:06:23;3.97;;;1.63;;
75156;SDS011;63736;50.076;8.198;2022-10-16T06:08:51;4.00;;;1.70;;
75156;SDS011;63736;50.076;8.198;2022-10-16T06:11:18;3.78;;;1.17;;
75156;SDS011;63736;50.076;8.198;2022-10-16T06:13:49;3.00;;;0.80;;
75156;SDS011;63736;50.076;8.198;2022-10-16T06:16:15;3.30;;;1.30;;
75156;SDS011;63736;50.076;8.198;2022-10-16T06:18:41;3.88;;;1.45;;
75156;SDS011;63736;50.076;8.198;2022-10-16T06:21:19;3.73;;;1.20;;
75156;SDS011;63736;50.076;8.198;2022-10-16T06:23:47;4.00;;;1.53;;
75156;SDS011;63736;50.076;8.198;2022-10-16T06:26:13;4.78;;;1.90;;
75156;SDS011;63736;50.076;8.198;2022-10-16T06:28:40;3.80;;;1.40;;
75156;SDS011;63736;50.076;8.198;2022-10-16T06:31:06;3.53;;;1.13;;
75156;SDS011;63736;50.076;8.198;2022-10-16T06:33:33;3.30;;;1.20;;
75156;SDS011;63736;50.076;8.198;2022-10-16T06:38:28;3.58;;;1.23;;
75156;SDS011;63736;50.076;8.198;2022-10-16T06:40:55;2.88;;;0.88;;
75156;SDS011;63736;50.076;8.198;2022-10-16T06:43:20;3.17;;;1.00;;
75156;SDS011;63736;50.076;8.198;2022-10-16T06:45:55;2.63;;;0.77;;
75156;SDS011;63736;50.076;8.198;2022-10-16T06:48:22;3.17;;;1.10;;
75156;SDS011;63736;50.076;8.198;2022-10-16T06:50:57;4.55;;;1.30;;
75156;SDS011;63736;50.076;8.198;2022-10-16T06:53:26;3.40;;;1.30;;
75156;SDS011;63736;50.076;8.198;2022-10-16T06:55:53;3.37;;;0.80;;
75156;SDS011;63736;50.076;8.198;2022-10-16T06:58:18;5.55;;;2.50;;
75156;SDS011;63736;50.076;8.198;2022-10-16T07:00:44;6.40;;;2.47;;
75156;SDS011;63736;50.076;8.198;2022-10-16T07:03:09;4.93;;;2.07;;
75156;SDS011;63736;50.076;8.198;2022-10-16T07:05:38;5.33;;;1.60;;
75156;SDS011;63736;50.076;8.198;2022-10-16T07:08:04;6.13;;;2.20;;
75156;SDS011;63736;50.076;8.198;2022-10-16T07:10:30;3.88;;;1.38;;
75156;SDS011;63736;50.076;8.198;2022-10-16T07:12:56;3.88;;;1.52;;
75156;SDS011;63736;50.076;8.198;2022-10-16T07:15:21;5.40;;;2.53;;
75156;SDS011;63736;50.076;8.198;2022-10-16T07:17:46;6.37;;;2.07;;
75156;SDS011;63736;50.076;8.198;2022-10-16T07:20:12;4.17;;;1.20;;
75156;SDS011;63736;50.076;8.198;2022-10-16T07:22:37;3.77;;;1.20;;
75156;SDS011;63736;50.076;8.198;2022-10-16T07:25:02;3.40;;;1.20;;
75156;SDS011;63736;50.076;8.198;2022-10-16T07:27:28;4.88;;;2.05;;
75156;SDS011;63736;50.076;8.198;2022-10-16T07:29:53;6.27;;;2.33;;
75156;SDS011;63736;50.076;8.198;2022-10-16T07:32:18;3.87;;;1.60;;
75156;SDS011;63736;50.076;8.198;2022-10-16T07:34:44;4.60;;;1.20;;
75156;SDS011;63736;50.076;8.198;2022-10-16T07:37:10;3.17;;;1.02;;
75156;SDS011;63736;50.076;8.198;2022-10-16T07:39:35;2.40;;;0.70;;
75156;SDS011;63736;50.076;8.198;2022-10-16T07:42:01;3.70;;;1.50;;
75156;SDS011;63736;50.076;8.198;2022-10-16T07:44:26;3.73;;;1.30;;
75156;SDS011;63736;50.076;8.198;2022-10-16T07:46:51;4.77;;;1.30;;
75156;SDS011;63736;50.076;8.198;2022-10-16T07:49:16;3.37;;;1.00;;
75156;SDS011;63736;50.076;8.198;2022-10-16T07:51:42;3.47;;;0.80;;
75156;SDS011;63736;50.076;8.198;2022-10-16T07:54:08;3.63;;;0.87;;
75156;SDS011;63736;50.076;8.198;2022-10-16T07:56:34;4.27;;;1.10;;
75156;SDS011;63736;50.076;8.198;2022-10-16T07:58:59;2.60;;;0.70;;
75156;SDS011;63736;50.076;8.198;2022-10-16T08:01:25;4.00;;;1.27;;
75156;SDS011;63736;50.076;8.198;2022-10-16T08:03:50;4.00;;;2.00;;
75156;SDS011;63736;50.076;8.198;2022-10-16T08:06:17;4.80;;;1.73;;
75156;SDS011;63736;50.076;8.198;2022-10-16T08:08:43;3.58;;;1.33;;
75156;SDS011;63736;50.076;8.198;2022-10-16T08:11:09;3.70;;;1.07;;
75156;SDS011;63736;50.076;8.198;2022-10-16T08:13:34;3.30;;;1.10;;
75156;SDS011;63736;50.076;8.198;2022-10-16T08:16:00;4.50;;;1.50;;
75156;SDS011;63736;50.076;8.198;2022-10-16T08:18:25;5.13;;;1.23;;
75156;SDS011;63736;50.076;8.198;2022-10-16T08:20:57;4.20;;;1.90;;
75156;SDS011;63736;50.076;8.198;2022-10-16T08:23:25;5.00;;;2.40;;
75156;SDS011;63736;50.076;8.198;2022-10-16T08:25:51;4.70;;;2.23;;
75156;SDS011;63736;50.076;8.198;2022-10-16T08:28:18;4.45;;;2.05;;
75156;SDS011;63736;50.076;8.198;2022-10-16T08:30:44;3.80;;;1.60;;
75156;SDS011;63736;50.076;8.198;2022-10-16T08:33:09;3.20;;;1.07;;
75156;SDS011;63736;50.076;8.198;2022-10-16T08:35:34;3.80;;;1.63;;
75156;SDS011;63736;50.076;8.198;2022-10-16T08:37:59;5.93;;;1.30;;
75156;SDS011;63736;50.076;8.198;2022-10-16T08:40:28;3.13;;;1.05;;
75156;SDS011;63736;50.076;8.198;2022-10-16T08:43:20;4.50;;;1.90;;
75156;SDS011;63736;50.076;8.198;2022-10-16T08:50:58;8.07;;;1.98;;
75156;SDS011;63736;50.076;8.198;2022-10-16T08:53:28;4.95;;;1.88;;
75156;SDS011;63736;50.076;8.198;2022-10-16T08:55:56;4.30;;;1.70;;
75156;SDS011;63736;50.076;8.198;2022-10-16T08:58:26;4.72;;;2.20;;
75156;SDS011;63736;50.076;8.198;2022-10-16T09:00:53;4.53;;;1.90;;
75156;SDS011;63736;50.076;8.198;2022-10-16T09:06:13;4.25;;;1.52;;
75156;SDS011;63736;50.076;8.198;2022-10-16T09:11:48;3.38;;;1.20;;
75156;SDS011;63736;50.076;8.198;2022-10-16T09:17:03;2.60;;;0.70;;
75156;SDS011;63736;50.076;8.198;2022-10-16T09:19:41;3.90;;;0.90;;
75156;SDS011;63736;50.076;8.198;2022-10-16T09:22:15;3.60;;;1.50;;
75156;SDS011;63736;50.076;8.198;2022-10-16T09:24:42;3.72;;;1.55;;
75156;SDS011;63736;50.076;8.198;2022-10-16T09:27:11;4.63;;;2.03;;
75156;SDS011;63736;50.076;8.198;2022-10-16T09:29:38;3.72;;;1.60;;
75156;SDS011;63736;50.076;8.198;2022-10-16T09:32:08;3.30;;;1.20;;
75156;SDS011;63736;50.076;8.198;2022-10-16T09:34:37;10.25;;;4.32;;
75156;SDS011;63736;50.076;8.198;2022-10-16T09:37:12;6.33;;;2.60;;
75156;SDS011;63736;50.076;8.198;2022-10-16T09:42:32;4.32;;;1.60;;
75156;SDS011;63736;50.076;8.198;2022-10-16T09:45:01;4.85;;;1.60;;
75156;SDS011;63736;50.076;8.198;2022-10-16T09:47:27;4.53;;;1.47;;
75156;SDS011;63736;50.076;8.198;2022-10-16T09:49:58;4.20;;;1.23;;
75156;SDS011;63736;50.076;8.198;2022-10-16T09:52:27;3.40;;;1.13;;
75156;SDS011;63736;50.076;8.198;2022-10-16T09:57:20;3.55;;;1.38;;
75156;SDS011;63736;50.076;8.198;2022-10-16T09:59:47;4.93;;;2.30;;
75156;SDS011;63736;50.076;8.198;2022-10-16T10:02:14;4.18;;;1.70;;
75156;SDS011;63736;50.076;8.198;2022-10-16T10:04:43;5.25;;;2.30;;
75156;SDS011;63736;50.076;8.198;2022-10-16T10:07:39;4.70;;;1.90;;
75156;SDS011;63736;50.076;8.198;2022-10-16T10:10:19;4.15;;;1.95;;
75156;SDS011;63736;50.076;8.198;2022-10-16T10:12:47;4.22;;;1.60;;
75156;SDS011;63736;50.076;8.198;2022-10-16T10:15:13;5.30;;;2.07;;
75156;SDS011;63736;50.076;8.198;2022-10-16T10:17:48;5.95;;;2.00;;
75156;SDS011;63736;50.076;8.198;2022-10-16T10:20:30;6.75;;;1.95;;
75156;SDS011;63736;50.076;8.198;2022-10-16T10:22:59;4.13;;;1.98;;
75156;SDS011;63736;50.076;8.198;2022-10-16T10:28:21;4.35;;;1.95;;
75156;SDS011;63736;50.076;8.198;2022-10-16T10:31:13;6.82;;;2.30;;
75156;SDS011;63736;50.076;8.198;2022-10-16T10:33:59;4.38;;;2.03;;
75156;SDS011;63736;50.076;8.198;2022-10-16T10:39:00;5.70;;;2.53;;
75156;SDS011;63736;50.076;8.198;2022-10-16T10:44:25;7.03;;;2.47;;
75156;SDS011;63736;50.076;8.198;2022-10-16T10:50:01;7.03;;;3.33;;
75156;SDS011;63736;50.076;8.198;2022-10-16T10:52:40;4.57;;;1.73;;
75156;SDS011;63736;50.076;8.198;2022-10-16T11:06:18;5.63;;;2.70;;
75156;SDS011;63736;50.076;8.198;2022-10-16T11:09:08;5.57;;;2.20;;
75156;SDS011;63736;50.076;8.198;2022-10-16T11:14:18;7.97;;;2.50;;
75156;SDS011;63736;50.076;8.198;2022-10-16T11:17:15;7.40;;;3.42;;
75156;SDS011;63736;50.076;8.198;2022-10-16T11:19:54;7.67;;;3.10;;
75156;SDS011;63736;50.076;8.198;2022-10-16T11:23:00;8.07;;;3.50;;
75156;SDS011;63736;50.076;8.198;2022-10-16T11:25:42;7.93;;;2.70;;
75156;SDS011;63736;50.076;8.198;2022-10-16T11:28:23;7.80;;;3.50;;
75156;SDS011;63736;50.076;8.198;2022-10-16T11:30:59;4.67;;;2.10;;
75156;SDS011;63736;50.076;8.198;2022-10-16T11:38:49;5.65;;;2.45;;
75156;SDS011;63736;50.076;8.198;2022-10-16T11:41:27;5.03;;;2.43;;
75156;SDS011;63736;50.076;8.198;2022-10-16T11:49:47;7.40;;;3.10;;
75156;SDS011;63736;50.076;8.198;2022-10-16T11:55:20;4.73;;;2.10;;
75156;SDS011;63736;50.076;8.198;2022-10-16T11:57:49;6.05;;;2.03;;
75156;SDS011;63736;50.076;8.198;2022-10-16T12:00:28;5.63;;;1.77;;
75156;SDS011;63736;50.076;8.198;2022-10-16T12:03:20;4.70;;;1.60;;
75156;SDS011;63736;50.076;8.198;2022-10-16T12:08:48;4.63;;;1.87;;
75156;SDS011;63736;50.076;8.198;2022-10-16T12:16:50;6.20;;;2.70;;
75156;SDS011;63736;50.076;8.198;2022-10-16T12:19:21;8.27;;;2.40;;
75156;SDS011;63736;50.076;8.198;2022-10-16T12:21:48;4.50;;;1.90;;
75156;SDS011;63736;50.076;8.198;2022-10-16T12:24:58;4.30;;;1.70;;
75156;SDS011;63736;50.076;8.198;2022-10-16T12:30:03;3.45;;;1.13;;
75156;SDS011;63736;50.076;8.198;2022-10-16T12:32:34;4.13;;;1.30;;
75156;SDS011;63736;50.076;8.198;2022-10-16T12:35:01;5.03;;;1.33;;
75156;SDS011;63736;50.076;8.198;2022-10-16T12:39:58;3.88;;;1.63;;
75156;SDS011;63736;50.076;8.198;2022-10-16T12:44:53;3.92;;;1.15;;
75156;SDS011;63736;50.076;8.198;2022-10-16T12:47:20;3.50;;;1.40;;
75156;SDS011;63736;50.076;8.198;2022-10-16T12:49:50;4.05;;;1.55;;
75156;SDS011;63736;50.076;8.198;2022-10-16T12:52:28;4.07;;;1.63;;
75156;SDS011;63736;50.076;8.198;2022-10-16T12:54:57;3.45;;;1.27;;
75156;SDS011;63736;50.076;8.198;2022-10-16T13:08:33;4.65;;;1.70;;
75156;SDS011;63736;50.076;8.198;2022-10-16T13:11:10;4.50;;;1.65;;
75156;SDS011;63736;50.076;8.198;2022-10-16T13:16:42;5.25;;;1.20;;
75156;SDS011;63736;50.076;8.198;2022-10-16T13:25:13;3.90;;;1.52;;
75156;SDS011;63736;50.076;8.198;2022-10-16T13:30:28;3.17;;;1.08;;
75156;SDS011;63736;50.076;8.198;2022-10-16T13:32:59;4.63;;;1.17;;
75156;SDS011;63736;50.076;8.198;2022-10-16T13:35:28;3.10;;;1.20;;
75156;SDS011;63736;50.076;8.198;2022-10-16T13:40:47;3.80;;;1.30;;
75156;SDS011;63736;50.076;8.198;2022-10-16T13:43:35;3.47;;;1.00;;
75156;SDS011;63736;50.076;8.198;2022-10-16T13:46:02;3.60;;;0.95;;
75156;SDS011;63736;50.076;8.198;2022-10-16T13:48:36;3.22;;;1.05;;
75156;SDS011;63736;50.076;8.198;2022-10-16T13:51:06;4.00;;;1.20;;
75156;SDS011;63736;50.076;8.198;2022-10-16T13:53:42;3.00;;;1.05;;
75156;SDS011;63736;50.076;8.198;2022-10-16T13:56:28;4.05;;;1.30;;
75156;SDS011;63736;50.076;8.198;2022-10-16T13:59:02;3.50;;;1.00;;
75156;SDS011;63736;50.076;8.198;2022-10-16T14:01:41;3.17;;;1.05;;
75156;SDS011;63736;50.076;8.198;2022-10-16T14:04:09;3.97;;;1.55;;
75156;SDS011;63736;50.076;8.198;2022-10-16T14:06:36;3.45;;;1.17;;
75156;SDS011;63736;50.076;8.198;2022-10-16T14:09:06;4.55;;;1.20;;
75156;SDS011;63736;50.076;8.198;2022-10-16T14:11:53;3.63;;;1.00;;
75156;SDS011;63736;50.076;8.198;2022-10-16T14:14:19;3.33;;;1.17;;
75156;SDS011;63736;50.076;8.198;2022-10-16T14:16:45;3.80;;;1.10;;
75156;SDS011;63736;50.076;8.198;2022-10-16T14:19:27;3.60;;;1.20;;
75156;SDS011;63736;50.076;8.198;2022-10-16T14:21:54;3.70;;;1.10;;
75156;SDS011;63736;50.076;8.198;2022-10-16T14:26:56;4.18;;;1.40;;
75156;SDS011;63736;50.076;8.198;2022-10-16T14:29:22;3.63;;;1.48;;
75156;SDS011;63736;50.076;8.198;2022-10-16T14:32:02;3.77;;;1.50;;
75156;SDS011;63736;50.076;8.198;2022-10-16T14:34:36;4.60;;;1.30;;
75156;SDS011;63736;50.076;8.198;2022-10-16T14:39:49;3.65;;;1.27;;
75156;SDS011;63736;50.076;8.198;2022-10-16T14:42:16;4.55;;;1.70;;
75156;SDS011;63736;50.076;8.198;2022-10-16T14:44:44;3.97;;;1.60;;
75156;SDS011;63736;50.076;8.198;2022-10-16T14:47:13;5.05;;;1.80;;
75156;SDS011;63736;50.076;8.198;2022-10-16T14:49:41;3.92;;;1.60;;
75156;SDS011;63736;50.076;8.198;2022-10-16T14:52:10;4.65;;;1.70;;
75156;SDS011;63736;50.076;8.198;2022-10-16T14:54:37;4.47;;;1.75;;
75156;SDS011;63736;50.076;8.198;2022-10-16T14:57:03;3.57;;;1.13;;
75156;SDS011;63736;50.076;8.198;2022-10-16T14:59:33;2.90;;;0.90;;
75156;SDS011;63736;50.076;8.198;2022-10-16T15:02:43;4.45;;;1.55;;
75156;SDS011;63736;50.076;8.198;2022-10-16T15:04:57;3.75;;;1.42;;
75156;SDS011;63736;50.076;8.198;2022-10-16T15:07:24;4.77;;;1.97;;
75156;SDS011;63736;50.076;8.198;2022-10-16T15:09:49;3.30;;;1.05;;
75156;SDS011;63736;50.076;8.198;2022-10-16T15:12:15;3.77;;;1.30;;
75156;SDS011;63736;50.076;8.198;2022-10-16T15:14:41;3.10;;;0.90;;
75156;SDS011;63736;50.076;8.198;2022-10-16T15:17:08;4.33;;;1.07;;
75156;SDS011;63736;50.076;8.198;2022-10-16T15:19:35;3.63;;;1.20;;
75156;SDS011;63736;50.076;8.198;2022-10-16T15:22:00;3.13;;;1.30;;
75156;SDS011;63736;50.076;8.198;2022-10-16T15:24:25;4.37;;;1.20;;
75156;SDS011;63736;50.076;8.198;2022-10-16T15:26:51;3.60;;;1.40;;
75156;SDS011;63736;50.076;8.198;2022-10-16T15:29:16;4.37;;;1.60;;
75156;SDS011;63736;50.076;8.198;2022-10-16T15:31:42;3.92;;;1.80;;
75156;SDS011;63736;50.076;8.198;2022-10-16T15:34:08;4.07;;;1.67;;
75156;SDS011;63736;50.076;8.198;2022-10-16T15:36:35;3.47;;;1.35;;
75156;SDS011;63736;50.076;8.198;2022-10-16T15:39:06;3.65;;;1.08;;
75156;SDS011;63736;50.076;8.198;2022-10-16T15:41:38;3.22;;;1.10;;
75156;SDS011;63736;50.076;8.198;2022-10-16T15:44:03;3.93;;;1.40;;
75156;SDS011;63736;50.076;8.198;2022-10-16T15:46:28;3.87;;;1.43;;
75156;SDS011;63736;50.076;8.198;2022-10-16T15:48:56;4.15;;;1.33;;
75156;SDS011;63736;50.076;8.198;2022-10-16T15:51:23;3.60;;;1.48;;
75156;SDS011;63736;50.076;8.198;2022-10-16T15:53:49;2.97;;;1.00;;
75156;SDS011;63736;50.076;8.198;2022-10-16T15:56:16;3.97;;;1.50;;
75156;SDS011;63736;50.076;8.198;2022-10-16T15:58:41;5.03;;;1.52;;
75156;SDS011;63736;50.076;8.198;2022-10-16T16:01:07;3.37;;;1.23;;
75156;SDS011;63736;50.076;8.198;2022-10-16T16:03:34;3.70;;;1.35;;
75156;SDS011;63736;50.076;8.198;2022-10-16T16:06:04;3.65;;;1.30;;
75156;SDS011;63736;50.076;8.198;2022-10-16T16:08:34;3.22;;;1.00;;
75156;SDS011;63736;50.076;8.198;2022-10-16T16:11:00;2.97;;;1.00;;
75156;SDS011;63736;50.076;8.198;2022-10-16T16:13:27;4.20;;;1.70;;
75156;SDS011;63736;50.076;8.198;2022-10-16T16:15:53;5.23;;;1.70;;
75156;SDS011;63736;50.076;8.198;2022-10-16T16:18:18;4.07;;;1.30;;
75156;SDS011;63736;50.076;8.198;2022-10-16T16:20:44;3.03;;;1.00;;
75156;SDS011;63736;50.076;8.198;2022-10-16T16:23:09;4.20;;;1.60;;
75156;SDS011;63736;50.076;8.198;2022-10-16T16:25:34;5.77;;;1.67;;
75156;SDS011;63736;50.076;8.198;2022-10-16T16:28:00;3.90;;;1.40;;
75156;SDS011;63736;50.076;8.198;2022-10-16T16:30:25;4.70;;;1.60;;
75156;SDS011;63736;50.076;8.198;2022-10-16T16:32:50;4.43;;;1.17;;
75156;SDS011;63736;50.076;8.198;2022-10-16T16:35:16;4.60;;;1.60;;
75156;SDS011;63736;50.076;8.198;2022-10-16T16:37:41;4.55;;;1.75;;
75156;SDS011;63736;50.076;8.198;2022-10-16T16:40:06;3.90;;;1.60;;
75156;SDS011;63736;50.076;8.198;2022-10-16T16:42:32;3.77;;;1.20;;
75156;SDS011;63736;50.076;8.198;2022-10-16T16:44:57;4.83;;;1.90;;
75156;SDS011;63736;50.076;8.198;2022-10-16T16:47:22;4.70;;;1.30;;
75156;SDS011;63736;50.076;8.198;2022-10-16T16:49:47;3.47;;;1.20;;
75156;SDS011;63736;50.076;8.198;2022-10-16T16:52:13;8.87;;;2.30;;
75156;SDS011;63736;50.076;8.198;2022-10-16T16:54:39;6.30;;;2.13;;
75156;SDS011;63736;50.076;8.198;2022-10-16T16:57:04;7.23;;;2.07;;
75156;SDS011;63736;50.076;8.198;2022-10-16T16:59:30;5.17;;;2.27;;
75156;SDS011;63736;50.076;8.198;2022-10-16T17:01:57;6.07;;;2.50;;
75156;SDS011;63736;50.076;8.198;2022-10-16T17:04:26;4.90;;;2.15;;